UGKO/KIU METAR and TAF weather

Enter ICAO airport designator
Station Type Date Time Source
UGKO METAR 2021/05/13 00:00 UTC NOAA

UGKO 130000Z 09003KT CAVOK 09/08 Q1011 NOSIG


Station Type Date Time Source
UGKO Decoded METAR 2021/05/13 00:00 UTC NOAA

Station name not available
May 12, 2021 - 08:00 PM EDT / 2021.05.13 0000 UTC
Wind: from the E (090 degrees) at 3 MPH (3 KT):0
Visibility: greater than 7 mile(s):0
Temperature: 48 F (9 C)
Dew Point: 46 F (8 C)
Relative Humidity: 93%
Pressure (altimeter): 29.85 in. Hg (1011 hPa)
ob: UGKO 130000Z 09003KT CAVOK 09/08 Q1011 NOSIG
cycle: 0

Station Type Date Time Source
UGKO TAF 2021/05/12 18:06 UTC NOAA

TAF UGKO 121700Z 1218/1318 26007KT CAVOK TX33/1311Z TN10/1223Z PROB40
TEMPO 1220/1224 0500 FG VV002
BECMG 1223/1301 08010KT
BECMG 1303/1306 08014G25KT

Example: see airport list